createdAt,value
2018-09-21T00:00:05.457Z,3.98
2018-09-21T00:02:39.988Z,3.85
2018-09-21T00:05:14.298Z,3.77
2018-09-21T00:07:48.758Z,4.08
2018-09-21T00:10:24.114Z,4.05
2018-09-21T00:12:58.849Z,4.33
2018-09-21T00:15:33.176Z,4.08
2018-09-21T00:18:07.118Z,3.80
2018-09-21T00:20:41.828Z,4.35
2018-09-21T00:23:16.933Z,3.98
2018-09-21T00:25:51.677Z,3.85
2018-09-21T00:28:25.850Z,4.10
2018-09-21T00:30:59.838Z,4.30
2018-09-21T00:33:34.223Z,4.37
2018-09-21T00:36:09.198Z,3.95
2018-09-21T00:38:43.244Z,4.33
2018-09-21T00:41:17.206Z,4.37
2018-09-21T00:43:51.389Z,4.92
2018-09-21T00:46:25.398Z,4.53
2018-09-21T00:48:59.674Z,4.50
2018-09-21T00:51:33.938Z,4.58
2018-09-21T00:54:08.254Z,4.25
2018-09-21T00:56:43.786Z,4.42
2018-09-21T00:59:19.008Z,4.78
2018-09-21T01:01:52.925Z,3.90
2018-09-21T01:04:32.187Z,4.87
2018-09-21T01:07:06.359Z,4.40
2018-09-21T01:09:41.244Z,4.45
2018-09-21T01:12:15.268Z,4.45
2018-09-21T01:14:49.299Z,4.70
2018-09-21T01:17:24.187Z,4.60
2018-09-21T01:19:58.351Z,4.53
2018-09-21T01:22:32.900Z,4.50
2018-09-21T01:25:06.938Z,4.80
2018-09-21T01:27:41.455Z,4.47
2018-09-21T01:30:15.544Z,4.85
2018-09-21T01:32:49.590Z,4.62
2018-09-21T01:35:25.337Z,5.08
2018-09-21T01:37:59.283Z,4.90
2018-09-21T01:40:33.454Z,4.95
2018-09-21T01:43:07.610Z,5.28
2018-09-21T01:45:42.319Z,4.58
2018-09-21T01:48:16.159Z,5.22
2018-09-21T01:50:50.607Z,5.03
2018-09-21T01:53:24.942Z,5.22
2018-09-21T01:55:59.143Z,5.12
2018-09-21T01:58:33.094Z,5.22
2018-09-21T02:01:07.379Z,4.80
2018-09-21T02:03:42.024Z,5.12
2018-09-21T02:06:16.914Z,4.65
2018-09-21T02:08:51.853Z,5.10
2018-09-21T02:11:26.383Z,5.20
2018-09-21T02:14:00.447Z,5.05
2018-09-21T02:16:34.809Z,5.45
2018-09-21T02:19:08.878Z,5.10
2018-09-21T02:21:43.640Z,5.62
2018-09-21T02:24:18.808Z,5.05
2018-09-21T02:26:53.495Z,4.83
2018-09-21T02:29:27.848Z,4.95
2018-09-21T02:32:01.994Z,5.60
2018-09-21T02:34:36.748Z,5.30
2018-09-21T02:37:10.801Z,5.25
2018-09-21T02:39:45.279Z,5.22
2018-09-21T02:42:19.713Z,5.55
2018-09-21T02:44:53.685Z,5.62
2018-09-21T02:47:28.553Z,5.37
2018-09-21T02:50:02.930Z,5.45
2018-09-21T02:52:37.698Z,5.72
2018-09-21T02:55:11.800Z,6.05
2018-09-21T02:57:46.565Z,6.05
2018-09-21T03:00:20.826Z,5.65
2018-09-21T03:02:55.263Z,6.05
2018-09-21T03:05:29.252Z,5.90
2018-09-21T03:08:04.242Z,5.97
2018-09-21T03:10:39.020Z,6.20
2018-09-21T03:13:13.050Z,6.20
2018-09-21T03:15:47.498Z,6.00
2018-09-21T03:18:21.649Z,5.95
2018-09-21T03:20:55.782Z,6.37
2018-09-21T03:23:29.464Z,5.72
2018-09-21T03:26:03.930Z,6.08
2018-09-21T03:28:38.068Z,5.80
2018-09-21T03:31:13.026Z,5.62
2018-09-21T03:33:47.503Z,6.03
2018-09-21T03:36:21.226Z,5.53
2018-09-21T03:38:55.975Z,5.37
2018-09-21T03:41:29.904Z,5.47
2018-09-21T03:44:04.198Z,5.20
2018-09-21T03:46:38.783Z,5.22
2018-09-21T03:49:12.850Z,5.40
2018-09-21T03:51:46.845Z,5.62
2018-09-21T03:54:21.514Z,5.08
2018-09-21T03:56:56.044Z,5.20
2018-09-21T03:59:30.316Z,5.25
2018-09-21T04:02:04.434Z,5.08
2018-09-21T04:04:41.099Z,4.67
2018-09-21T04:07:14.928Z,5.12
2018-09-21T04:09:49.327Z,4.67
2018-09-21T04:12:24.562Z,5.30
2018-09-21T04:14:58.677Z,5.03
2018-09-21T04:17:32.997Z,5.50
2018-09-21T04:20:06.909Z,4.95
2018-09-21T04:22:45.863Z,5.08
2018-09-21T04:25:19.923Z,5.55
2018-09-21T04:27:54.233Z,4.92
2018-09-21T04:30:29.126Z,4.85
2018-09-21T04:33:03.097Z,4.58
2018-09-21T04:35:38.020Z,4.45
2018-09-21T04:38:12.139Z,4.65
2018-09-21T04:40:46.122Z,4.45
2018-09-21T04:43:20.273Z,4.33
2018-09-21T04:45:54.650Z,4.70
2018-09-21T04:48:28.737Z,4.80
2018-09-21T04:51:03.719Z,4.75
2018-09-21T04:53:38.899Z,5.40
2018-09-21T04:56:13.329Z,4.53
2018-09-21T04:58:47.792Z,4.45
2018-09-21T05:01:22.166Z,4.22
2018-09-21T05:03:57.201Z,4.42
2018-09-21T05:06:31.722Z,4.53
2018-09-21T05:09:08.036Z,4.33
2018-09-21T05:11:42.653Z,4.97
2018-09-21T05:14:16.588Z,4.45
2018-09-21T05:16:51.662Z,5.10
2018-09-21T05:19:26.132Z,5.15
2018-09-21T05:22:01.180Z,4.60
2018-09-21T05:24:35.087Z,4.55
2018-09-21T05:27:09.969Z,4.40
2018-09-21T05:29:44.131Z,4.80
2018-09-21T05:32:18.855Z,4.50
2018-09-21T05:34:52.977Z,4.72
2018-09-21T05:37:27.043Z,4.70
2018-09-21T05:40:00.863Z,6.30
2018-09-21T05:42:34.947Z,8.30
2018-09-21T05:45:09.009Z,5.45
2018-09-21T05:47:43.102Z,5.05
2018-09-21T05:50:17.253Z,5.40
2018-09-21T05:52:51.329Z,4.90
2018-09-21T05:55:25.363Z,5.00
2018-09-21T05:57:59.425Z,5.30
2018-09-21T06:00:33.628Z,4.95
2018-09-21T06:03:07.799Z,4.80
2018-09-21T06:05:41.862Z,4.92
2018-09-21T06:08:16.823Z,5.20
2018-09-21T06:10:50.907Z,5.50
2018-09-21T06:13:25.159Z,5.10
2018-09-21T06:15:59.148Z,4.92
2018-09-21T06:18:34.243Z,5.40
2018-09-21T06:21:08.708Z,5.70
2018-09-21T06:23:43.199Z,5.60
2018-09-21T06:26:17.173Z,4.95
2018-09-21T06:28:51.656Z,5.40
2018-09-21T06:31:26.132Z,5.20
2018-09-21T06:34:00.258Z,4.95
2018-09-21T06:36:34.802Z,5.20
2018-09-21T06:39:10.751Z,4.65
2018-09-21T06:41:45.367Z,4.97
2018-09-21T06:44:20.546Z,5.08
2018-09-21T06:46:54.502Z,5.42
2018-09-21T06:49:29.252Z,5.45
2018-09-21T06:52:03.444Z,5.45
2018-09-21T06:54:37.859Z,5.33
2018-09-21T06:57:12.262Z,5.03
2018-09-21T06:59:46.809Z,5.20
2018-09-21T07:02:21.509Z,5.20
2018-09-21T07:05:00.682Z,5.60
2018-09-21T07:07:34.985Z,5.30
2018-09-21T07:10:09.593Z,5.50
2018-09-21T07:12:43.899Z,5.92
2018-09-21T07:15:18.486Z,5.30
2018-09-21T07:17:52.511Z,5.30
2018-09-21T07:20:27.524Z,5.17
2018-09-21T07:23:02.638Z,5.42
2018-09-21T07:25:37.367Z,5.40
2018-09-21T07:28:11.108Z,5.45
2018-09-21T07:30:45.331Z,5.30
2018-09-21T07:33:20.305Z,5.42
2018-09-21T07:35:55.454Z,5.85
2018-09-21T07:38:30.279Z,5.33
2018-09-21T07:41:04.890Z,5.67
2018-09-21T07:43:39.874Z,5.12
2018-09-21T07:46:14.805Z,5.58
2018-09-21T07:48:50.224Z,5.22
2018-09-21T07:51:24.916Z,5.03
2018-09-21T07:53:59.233Z,4.90
2018-09-21T07:56:33.745Z,5.42
2018-09-21T07:59:08.138Z,5.03
2018-09-21T08:01:42.316Z,4.40
2018-09-21T08:04:16.939Z,4.90
2018-09-21T08:06:51.924Z,5.10
2018-09-21T08:09:26.427Z,4.87
2018-09-21T08:12:00.531Z,5.03
2018-09-21T08:14:35.052Z,4.50
2018-09-21T08:17:09.148Z,4.30
2018-09-21T08:19:44.153Z,5.20
2018-09-21T08:22:18.569Z,4.25
2018-09-21T08:24:53.660Z,4.62
2018-09-21T08:27:27.930Z,4.40
2018-09-21T08:30:02.920Z,4.20
2018-09-21T08:32:37.314Z,4.45
2018-09-21T08:35:11.380Z,3.85
2018-09-21T08:37:45.663Z,4.12
2018-09-21T08:40:21.787Z,4.17
2018-09-21T08:42:55.743Z,4.20
2018-09-21T08:45:30.071Z,3.95
2018-09-21T08:48:04.909Z,4.20
2018-09-21T08:50:38.907Z,4.03
2018-09-21T08:53:13.351Z,4.17
2018-09-21T08:55:47.463Z,4.17
2018-09-21T08:58:21.519Z,3.72
2018-09-21T09:00:55.555Z,4.42
2018-09-21T09:03:30.537Z,4.03
2018-09-21T09:06:04.746Z,4.37
2018-09-21T09:08:38.961Z,3.90
2018-09-21T09:11:13.796Z,4.03
2018-09-21T09:13:48.740Z,3.83
2018-09-21T09:16:22.879Z,3.83
2018-09-21T09:18:56.973Z,3.72
2018-09-21T09:21:31.879Z,4.30
2018-09-21T09:24:06.158Z,3.83
2018-09-21T09:26:40.198Z,4.40
2018-09-21T09:29:14.246Z,3.92
2018-09-21T09:31:48.410Z,4.30
2018-09-21T09:34:23.049Z,4.08
2018-09-21T09:36:57.313Z,3.85
2018-09-21T09:39:31.319Z,3.45
2018-09-21T09:42:05.727Z,3.90
2018-09-21T09:44:39.806Z,3.87
2018-09-21T09:47:14.838Z,3.85
2018-09-21T09:49:49.268Z,3.75
2018-09-21T09:52:23.114Z,3.45
2018-09-21T09:54:57.579Z,3.72
2018-09-21T09:57:31.724Z,3.00
2018-09-21T10:00:06.923Z,3.85
2018-09-21T10:02:42.007Z,3.00
2018-09-21T10:05:16.316Z,2.80
2018-09-21T10:07:50.328Z,2.80
2018-09-21T10:10:28.749Z,3.22
2018-09-21T10:13:02.759Z,2.85
2018-09-21T10:15:37.878Z,2.87
2018-09-21T10:18:12.513Z,3.00
2018-09-21T10:20:47.779Z,2.83
2018-09-21T10:23:22.077Z,3.12
2018-09-21T10:25:56.077Z,3.20
2018-09-21T10:28:30.536Z,4.10
2018-09-21T10:31:04.343Z,4.12
2018-09-21T10:33:39.011Z,2.95
2018-09-21T10:36:14.183Z,2.20
2018-09-21T10:38:48.943Z,1.80
2018-09-21T10:41:23.649Z,2.10
2018-09-21T10:43:58.033Z,1.65
2018-09-21T10:46:31.937Z,1.50
2018-09-21T10:49:06.018Z,1.77
2018-09-21T10:51:40.751Z,1.67
2018-09-21T10:54:15.199Z,1.93
2018-09-21T10:56:49.553Z,1.80
2018-09-21T10:59:23.947Z,1.70
2018-09-21T11:01:57.763Z,1.70
2018-09-21T11:04:31.920Z,1.80
2018-09-21T11:07:06.841Z,1.50
2018-09-21T11:09:40.860Z,1.80
2018-09-21T11:12:15.357Z,2.03
2018-09-21T11:14:49.868Z,1.63
2018-09-21T11:17:24.078Z,1.90
2018-09-21T11:19:59.125Z,1.80
2018-09-21T11:22:33.284Z,2.10
2018-09-21T11:25:07.570Z,1.80
2018-09-21T11:27:42.027Z,1.83
2018-09-21T11:30:17.453Z,1.90
2018-09-21T11:32:52.167Z,1.50
2018-09-21T11:35:31.164Z,1.60
2018-09-21T11:38:05.355Z,1.83
2018-09-21T11:40:39.759Z,1.67
2018-09-21T11:43:14.018Z,1.57
2018-09-21T11:45:48.672Z,1.90
2018-09-21T11:48:23.001Z,2.10
2018-09-21T11:50:58.064Z,2.10
2018-09-21T11:53:32.299Z,2.37
2018-09-21T11:56:06.842Z,1.50
2018-09-21T11:58:41.543Z,1.60
2018-09-21T12:01:15.680Z,1.80
2018-09-21T12:03:49.878Z,1.67
2018-09-21T12:06:24.519Z,1.53
2018-09-21T12:08:58.673Z,1.67
2018-09-21T12:11:32.845Z,1.83
2018-09-21T12:14:06.722Z,1.40
2018-09-21T12:16:41.852Z,1.57
2018-09-21T12:19:16.744Z,1.67
2018-09-21T12:21:51.577Z,1.67
2018-09-21T12:24:25.629Z,1.70
2018-09-21T12:26:59.702Z,1.57
2018-09-21T12:29:34.585Z,2.00
2018-09-21T12:32:09.041Z,1.63
2018-09-21T12:34:43.179Z,1.87
2018-09-21T12:37:17.192Z,1.80
2018-09-21T12:39:52.298Z,1.67
2018-09-21T12:42:26.509Z,2.17
2018-09-21T12:45:02.271Z,1.53
2018-09-21T12:47:36.868Z,1.67
2018-09-21T12:50:10.802Z,2.03
2018-09-21T12:52:45.275Z,2.10
2018-09-21T12:55:20.594Z,2.00
2018-09-21T12:57:55.156Z,2.03
2018-09-21T13:00:33.599Z,2.27
2018-09-21T13:03:07.953Z,2.10
2018-09-21T13:05:42.961Z,2.20
2018-09-21T13:08:16.862Z,2.03
2018-09-21T13:10:51.184Z,1.87
2018-09-21T13:13:25.352Z,1.80
2018-09-21T13:15:59.802Z,1.63
2018-09-21T13:18:34.048Z,2.10
2018-09-21T13:21:08.166Z,2.47
2018-09-21T13:23:47.961Z,2.20
2018-09-21T13:26:23.073Z,2.77
2018-09-21T13:28:57.254Z,2.53
2018-09-21T13:31:31.969Z,2.50
2018-09-21T13:34:06.165Z,2.67
2018-09-21T13:36:40.418Z,2.80
2018-09-21T13:39:14.580Z,3.00
2018-09-21T13:41:49.023Z,2.70
2018-09-21T13:44:23.577Z,3.40
2018-09-21T13:46:57.589Z,3.13
2018-09-21T13:49:31.902Z,3.00
2018-09-21T13:52:06.203Z,3.33
2018-09-21T13:54:41.603Z,2.97
2018-09-21T13:57:16.175Z,3.00
2018-09-21T13:59:50.457Z,3.43
2018-09-21T14:02:24.834Z,3.47
2018-09-21T14:04:59.794Z,3.40
2018-09-21T14:07:33.864Z,3.10
2018-09-21T14:10:08.635Z,3.80
2018-09-21T14:12:43.677Z,3.90
2018-09-21T14:15:18.483Z,3.33
2018-09-21T14:17:53.138Z,4.03
2018-09-21T14:20:28.035Z,3.87
2018-09-21T14:23:02.712Z,3.70
2018-09-21T14:25:37.970Z,4.20
2018-09-21T14:28:12.208Z,4.03
2018-09-21T14:30:46.291Z,4.40
2018-09-21T14:33:20.469Z,4.00
2018-09-21T14:35:54.738Z,4.30
2018-09-21T14:38:29.874Z,4.50
2018-09-21T14:41:03.996Z,3.67
2018-09-21T14:43:38.293Z,3.10
2018-09-21T14:46:13.559Z,2.30
2018-09-21T14:48:48.599Z,2.53
2018-09-21T14:51:22.976Z,2.40
2018-09-21T14:53:57.636Z,1.83
2018-09-21T14:56:31.573Z,1.80
2018-09-21T14:59:05.870Z,2.00
2018-09-21T15:01:40.668Z,1.90
2018-09-21T15:04:14.792Z,1.57
2018-09-21T15:06:49.474Z,1.53
2018-09-21T15:09:24.767Z,1.60
2018-09-21T15:11:59.169Z,1.70
2018-09-21T15:14:33.640Z,1.53
2018-09-21T15:17:07.712Z,1.50
2018-09-21T15:19:42.157Z,1.43
2018-09-21T15:22:16.784Z,1.60
2018-09-21T15:24:50.843Z,1.40
2018-09-21T15:27:25.255Z,1.70
2018-09-21T15:29:59.939Z,1.50
2018-09-21T15:32:34.113Z,1.40
2018-09-21T15:35:08.180Z,1.50
2018-09-21T15:37:42.755Z,1.20
2018-09-21T15:40:17.088Z,1.50
2018-09-21T15:42:51.204Z,1.57
2018-09-21T15:45:25.466Z,1.60
2018-09-21T15:47:59.629Z,1.40
2018-09-21T15:50:35.191Z,1.30
2018-09-21T15:53:10.254Z,1.37
2018-09-21T15:55:45.790Z,1.40
2018-09-21T15:58:20.353Z,1.53
2018-09-21T16:00:54.424Z,1.50
2018-09-21T16:03:28.992Z,1.50
2018-09-21T16:06:03.365Z,1.30
2018-09-21T16:08:37.997Z,1.53
2018-09-21T16:11:12.130Z,1.37
2018-09-21T16:13:47.020Z,1.20
2018-09-21T16:16:21.860Z,1.35
2018-09-21T16:18:57.015Z,1.07
2018-09-21T16:21:31.138Z,1.25
2018-09-21T16:24:06.195Z,1.12
2018-09-21T16:26:40.497Z,1.47
2018-09-21T16:29:20.017Z,1.20
2018-09-21T16:31:54.356Z,1.27
2018-09-21T16:34:29.542Z,1.20
2018-09-21T16:37:04.033Z,1.42
2018-09-21T16:39:39.593Z,1.52
2018-09-21T16:42:13.819Z,1.32
2018-09-21T16:44:48.150Z,1.40
2018-09-21T16:47:22.203Z,1.30
2018-09-21T16:49:56.700Z,1.20
2018-09-21T16:52:30.651Z,1.22
2018-09-21T16:55:04.860Z,1.20
2018-09-21T16:57:39.139Z,1.00
2018-09-21T17:00:13.320Z,1.10
2018-09-21T17:02:47.369Z,1.20
2018-09-21T17:05:21.874Z,1.07
2018-09-21T17:07:56.362Z,1.13
2018-09-21T17:10:30.637Z,1.37
2018-09-21T17:13:04.992Z,1.30
2018-09-21T17:15:39.518Z,1.23
2018-09-21T17:18:13.909Z,1.20
2018-09-21T17:20:48.127Z,1.10
2018-09-21T17:23:23.110Z,1.17
2018-09-21T17:25:58.259Z,1.13
2018-09-21T17:28:32.602Z,1.10
2018-09-21T17:31:07.083Z,1.40
2018-09-21T17:33:41.441Z,1.40
2018-09-21T17:36:16.271Z,1.30
2018-09-21T17:38:50.387Z,1.23
2018-09-21T17:41:24.716Z,1.20
2018-09-21T17:43:59.578Z,1.20
2018-09-21T17:46:34.178Z,1.23
2018-09-21T17:49:08.783Z,1.37
2018-09-21T17:51:43.190Z,1.20
2018-09-21T17:54:17.794Z,1.27
2018-09-21T17:56:53.413Z,1.27
2018-09-21T17:59:27.650Z,1.13
2018-09-21T18:02:02.359Z,1.40
2018-09-21T18:04:38.174Z,1.10
2018-09-21T18:07:21.868Z,1.33
2018-09-21T18:09:56.317Z,1.40
2018-09-21T18:12:30.988Z,1.10
2018-09-21T18:15:05.168Z,1.43
2018-09-21T18:17:39.753Z,1.40
2018-09-21T18:20:14.892Z,1.30
2018-09-21T18:22:48.960Z,1.20
2018-09-21T18:25:23.245Z,1.40
2018-09-21T18:27:57.685Z,1.97
2018-09-21T18:30:33.058Z,1.17
2018-09-21T18:33:07.563Z,1.20
2018-09-21T18:35:42.510Z,1.20
2018-09-21T18:38:16.686Z,1.10
2018-09-21T18:40:51.105Z,1.40
2018-09-21T18:43:25.513Z,1.20
2018-09-21T18:45:59.938Z,1.63
2018-09-21T18:48:34.420Z,1.77
2018-09-21T18:51:09.094Z,1.63
2018-09-21T18:53:43.610Z,1.73
2018-09-21T18:56:18.030Z,1.47
2018-09-21T18:58:53.299Z,1.63
2018-09-21T19:01:27.591Z,1.20
2018-09-21T19:04:01.838Z,1.60
2018-09-21T19:06:36.028Z,1.37
2018-09-21T19:09:11.431Z,1.10
2018-09-21T19:11:45.828Z,1.40
2018-09-21T19:14:20.808Z,1.47
2018-09-21T19:16:55.143Z,1.40
2018-09-21T19:19:29.484Z,1.57
2018-09-21T19:22:04.068Z,1.30
2018-09-21T19:24:38.762Z,1.40
2018-09-21T19:27:13.052Z,1.50
2018-09-21T19:29:47.523Z,1.00
2018-09-21T19:32:22.029Z,1.13
2018-09-21T19:34:56.620Z,1.37
2018-09-21T19:37:31.479Z,1.40
2018-09-21T19:40:06.484Z,1.40
2018-09-21T19:42:41.579Z,1.10
2018-09-21T19:45:16.306Z,1.30
2018-09-21T19:47:50.736Z,1.33
2018-09-21T19:50:25.090Z,1.50
2018-09-21T19:52:59.143Z,1.20
2018-09-21T19:55:33.346Z,1.10
2018-09-21T19:58:08.181Z,1.00
2018-09-21T20:00:42.333Z,1.27
2018-09-21T20:03:17.162Z,1.27
2018-09-21T20:05:52.272Z,1.23
2018-09-21T20:08:26.548Z,1.30
2018-09-21T20:11:00.875Z,1.17
2018-09-21T20:13:35.877Z,1.17
2018-09-21T20:16:10.020Z,1.43
2018-09-21T20:18:44.072Z,1.40
2018-09-21T20:21:18.937Z,1.27
2018-09-21T20:23:53.129Z,1.17
2018-09-21T20:26:27.328Z,1.07
2018-09-21T20:29:01.656Z,1.40
2018-09-21T20:31:41.045Z,1.20
2018-09-21T20:34:15.229Z,1.40
2018-09-21T20:36:49.491Z,1.40
2018-09-21T20:39:24.243Z,1.40
2018-09-21T20:41:58.699Z,1.40
2018-09-21T20:44:32.678Z,1.60
2018-09-21T20:47:06.786Z,1.20
2018-09-21T20:49:40.797Z,1.47
2018-09-21T20:52:15.174Z,1.43
2018-09-21T20:54:49.528Z,1.00
2018-09-21T20:57:23.662Z,1.20
2018-09-21T20:59:57.692Z,1.50
2018-09-21T21:02:31.661Z,1.37
2018-09-21T21:05:06.571Z,1.40
2018-09-21T21:07:40.459Z,1.27
2018-09-21T21:10:14.500Z,1.53
2018-09-21T21:12:49.877Z,1.33
2018-09-21T21:15:24.740Z,1.30
2018-09-21T21:17:59.088Z,1.57
2018-09-21T21:20:33.589Z,1.27
2018-09-21T21:23:08.342Z,1.30
2018-09-21T21:25:42.287Z,1.43
2018-09-21T21:28:16.146Z,1.37
2018-09-21T21:30:50.881Z,1.30
2018-09-21T21:33:25.042Z,1.40
2018-09-21T21:35:59.367Z,1.70
2018-09-21T21:38:34.167Z,1.47
2018-09-21T21:41:08.565Z,1.87
2018-09-21T21:43:42.738Z,1.60
2018-09-21T21:46:16.800Z,2.13
2018-09-21T21:48:51.452Z,1.70
2018-09-21T21:51:26.078Z,1.83
2018-09-21T21:54:00.262Z,2.00
2018-09-21T21:56:34.124Z,1.70
2018-09-21T21:59:08.217Z,2.10
2018-09-21T22:01:44.212Z,1.37
2018-09-21T22:04:18.713Z,1.60
2018-09-21T22:06:53.321Z,1.60
2018-09-21T22:09:27.227Z,1.70
2018-09-21T22:12:06.771Z,1.70
2018-09-21T22:14:40.829Z,1.77
2018-09-21T22:17:14.727Z,1.60
2018-09-21T22:19:48.926Z,1.77
2018-09-21T22:22:22.964Z,1.77
2018-09-21T22:24:56.936Z,1.43
2018-09-21T22:27:31.363Z,1.60
2018-09-21T22:30:05.812Z,1.40
2018-09-21T22:32:40.431Z,1.53
2018-09-21T22:35:14.371Z,1.60
2018-09-21T22:37:48.351Z,1.83
2018-09-21T22:40:23.442Z,1.87
2018-09-21T22:42:58.140Z,1.83
2018-09-21T22:45:32.402Z,2.27
2018-09-21T22:48:06.388Z,2.10
2018-09-21T22:50:41.023Z,1.87
2018-09-21T22:53:15.091Z,1.77
2018-09-21T22:55:49.327Z,1.97
2018-09-21T22:58:23.613Z,2.03
2018-09-21T23:00:57.600Z,2.77
2018-09-21T23:03:32.084Z,1.93
2018-09-21T23:06:06.502Z,1.70
2018-09-21T23:08:40.539Z,2.40
2018-09-21T23:11:14.856Z,2.07
2018-09-21T23:13:49.000Z,2.03
2018-09-21T23:16:22.877Z,2.03
2018-09-21T23:18:57.557Z,2.13
2018-09-21T23:21:32.166Z,1.70
2018-09-21T23:24:05.985Z,2.30
2018-09-21T23:26:40.616Z,2.20
2018-09-21T23:29:14.996Z,2.23
2018-09-21T23:31:49.595Z,2.00
2018-09-21T23:34:23.515Z,2.57
2018-09-21T23:36:58.739Z,2.57
2018-09-21T23:39:32.837Z,2.57
2018-09-21T23:42:06.858Z,2.10
2018-09-21T23:44:41.532Z,1.70
2018-09-21T23:47:15.716Z,1.90
2018-09-21T23:49:49.722Z,1.63
2018-09-21T23:52:23.782Z,1.87
2018-09-21T23:54:58.266Z,1.70
2018-09-21T23:57:32.396Z,1.87
